sensor_id;sensor_type;location;lat;lon;timestamp;P1;durP1;ratioP1;P2;durP2;ratioP2
52322;SDS011;38263;52.920;6.238;2023-05-20T00:02:19;11.15;;;5.55;;
52322;SDS011;38263;52.920;6.238;2023-05-20T00:04:45;16.05;;;6.65;;
52322;SDS011;38263;52.920;6.238;2023-05-20T00:07:11;11.13;;;5.47;;
52322;SDS011;38263;52.920;6.238;2023-05-20T00:09:38;13.35;;;5.40;;
52322;SDS011;38263;52.920;6.238;2023-05-20T00:12:06;8.90;;;4.55;;
52322;SDS011;38263;52.920;6.238;2023-05-20T00:14:32;12.20;;;5.28;;
52322;SDS011;38263;52.920;6.238;2023-05-20T00:16:58;16.95;;;5.30;;
52322;SDS011;38263;52.920;6.238;2023-05-20T00:19:24;14.75;;;5.78;;
52322;SDS011;38263;52.920;6.238;2023-05-20T00:21:50;10.80;;;5.30;;
52322;SDS011;38263;52.920;6.238;2023-05-20T00:24:16;10.40;;;5.10;;
52322;SDS011;38263;52.920;6.238;2023-05-20T00:26:42;12.95;;;5.53;;
52322;SDS011;38263;52.920;6.238;2023-05-20T00:29:08;14.45;;;7.05;;
52322;SDS011;38263;52.920;6.238;2023-05-20T00:31:34;11.10;;;5.70;;
52322;SDS011;38263;52.920;6.238;2023-05-20T00:34:00;11.40;;;5.75;;
52322;SDS011;38263;52.920;6.238;2023-05-20T00:36:26;16.00;;;6.35;;
52322;SDS011;38263;52.920;6.238;2023-05-20T00:38:52;14.43;;;5.90;;
52322;SDS011;38263;52.920;6.238;2023-05-20T00:41:18;8.50;;;5.07;;
52322;SDS011;38263;52.920;6.238;2023-05-20T00:43:45;12.70;;;4.75;;
52322;SDS011;38263;52.920;6.238;2023-05-20T00:46:11;9.57;;;5.45;;
52322;SDS011;38263;52.920;6.238;2023-05-20T00:48:41;17.67;;;5.70;;
52322;SDS011;38263;52.920;6.238;2023-05-20T00:51:07;13.68;;;5.40;;
52322;SDS011;38263;52.920;6.238;2023-05-20T00:53:33;13.02;;;5.68;;
52322;SDS011;38263;52.920;6.238;2023-05-20T00:56:00;12.73;;;5.90;;
52322;SDS011;38263;52.920;6.238;2023-05-20T00:58:26;9.65;;;5.68;;
52322;SDS011;38263;52.920;6.238;2023-05-20T01:00:52;14.50;;;5.85;;
52322;SDS011;38263;52.920;6.238;2023-05-20T01:03:18;12.25;;;6.25;;
52322;SDS011;38263;52.920;6.238;2023-05-20T01:05:45;10.70;;;5.80;;
52322;SDS011;38263;52.920;6.238;2023-05-20T01:08:11;11.52;;;5.90;;
52322;SDS011;38263;52.920;6.238;2023-05-20T01:10:38;11.93;;;6.07;;
52322;SDS011;38263;52.920;6.238;2023-05-20T01:13:07;14.02;;;5.80;;
52322;SDS011;38263;52.920;6.238;2023-05-20T01:15:33;10.68;;;6.50;;
52322;SDS011;38263;52.920;6.238;2023-05-20T01:18:00;10.73;;;6.10;;
52322;SDS011;38263;52.920;6.238;2023-05-20T01:20:29;12.93;;;6.30;;
52322;SDS011;38263;52.920;6.238;2023-05-20T01:22:57;13.70;;;5.22;;
52322;SDS011;38263;52.920;6.238;2023-05-20T01:25:23;10.55;;;6.32;;
52322;SDS011;38263;52.920;6.238;2023-05-20T01:27:50;11.32;;;5.40;;
52322;SDS011;38263;52.920;6.238;2023-05-20T01:30:16;13.50;;;6.50;;
52322;SDS011;38263;52.920;6.238;2023-05-20T01:32:45;14.60;;;6.72;;
52322;SDS011;38263;52.920;6.238;2023-05-20T01:35:12;10.15;;;5.60;;
52322;SDS011;38263;52.920;6.238;2023-05-20T01:37:39;10.65;;;5.90;;
52322;SDS011;38263;52.920;6.238;2023-05-20T01:40:08;11.00;;;5.50;;
52322;SDS011;38263;52.920;6.238;2023-05-20T01:42:35;9.10;;;5.97;;
52322;SDS011;38263;52.920;6.238;2023-05-20T01:45:02;12.38;;;5.65;;
52322;SDS011;38263;52.920;6.238;2023-05-20T01:47:29;11.98;;;6.22;;
52322;SDS011;38263;52.920;6.238;2023-05-20T01:49:55;10.82;;;5.45;;
52322;SDS011;38263;52.920;6.238;2023-05-20T01:52:21;11.20;;;5.75;;
52322;SDS011;38263;52.920;6.238;2023-05-20T01:54:48;12.70;;;5.70;;
52322;SDS011;38263;52.920;6.238;2023-05-20T01:57:17;10.60;;;6.30;;
52322;SDS011;38263;52.920;6.238;2023-05-20T01:59:43;14.90;;;6.63;;
52322;SDS011;38263;52.920;6.238;2023-05-20T02:02:09;12.82;;;5.63;;
52322;SDS011;38263;52.920;6.238;2023-05-20T02:04:35;13.18;;;6.28;;
52322;SDS011;38263;52.920;6.238;2023-05-20T02:07:01;15.35;;;6.05;;
52322;SDS011;38263;52.920;6.238;2023-05-20T02:09:27;15.57;;;6.28;;
52322;SDS011;38263;52.920;6.238;2023-05-20T02:11:53;11.50;;;5.97;;
52322;SDS011;38263;52.920;6.238;2023-05-20T02:14:19;14.93;;;6.38;;
52322;SDS011;38263;52.920;6.238;2023-05-20T02:16:45;12.90;;;6.25;;
52322;SDS011;38263;52.920;6.238;2023-05-20T02:19:11;16.70;;;6.43;;
52322;SDS011;38263;52.920;6.238;2023-05-20T02:21:41;13.38;;;6.00;;
52322;SDS011;38263;52.920;6.238;2023-05-20T02:24:09;12.40;;;6.63;;
52322;SDS011;38263;52.920;6.238;2023-05-20T02:26:35;11.02;;;6.13;;
52322;SDS011;38263;52.920;6.238;2023-05-20T02:29:01;12.20;;;6.30;;
52322;SDS011;38263;52.920;6.238;2023-05-20T02:31:27;10.32;;;5.45;;
52322;SDS011;38263;52.920;6.238;2023-05-20T02:33:53;15.02;;;6.55;;
52322;SDS011;38263;52.920;6.238;2023-05-20T02:36:19;12.48;;;5.97;;
52322;SDS011;38263;52.920;6.238;2023-05-20T02:38:45;14.68;;;6.68;;
52322;SDS011;38263;52.920;6.238;2023-05-20T02:41:11;11.43;;;6.05;;
52322;SDS011;38263;52.920;6.238;2023-05-20T02:43:37;12.35;;;6.28;;
52322;SDS011;38263;52.920;6.238;2023-05-20T02:46:04;9.05;;;5.75;;
52322;SDS011;38263;52.920;6.238;2023-05-20T02:48:30;16.08;;;5.93;;
52322;SDS011;38263;52.920;6.238;2023-05-20T02:50:58;12.13;;;5.50;;
52322;SDS011;38263;52.920;6.238;2023-05-20T02:53:24;14.07;;;7.13;;
52322;SDS011;38263;52.920;6.238;2023-05-20T02:55:50;14.02;;;6.32;;
52322;SDS011;38263;52.920;6.238;2023-05-20T02:58:16;8.63;;;5.32;;
52322;SDS011;38263;52.920;6.238;2023-05-20T03:00:42;8.73;;;5.65;;
52322;SDS011;38263;52.920;6.238;2023-05-20T03:03:08;13.00;;;5.95;;
52322;SDS011;38263;52.920;6.238;2023-05-20T03:05:35;13.48;;;5.22;;
52322;SDS011;38263;52.920;6.238;2023-05-20T03:08:02;11.30;;;6.22;;
52322;SDS011;38263;52.920;6.238;2023-05-20T03:10:35;6.93;;;5.63;;
52322;SDS011;38263;52.920;6.238;2023-05-20T03:13:01;10.13;;;5.53;;
52322;SDS011;38263;52.920;6.238;2023-05-20T03:15:28;9.55;;;5.53;;
52322;SDS011;38263;52.920;6.238;2023-05-20T03:17:54;8.10;;;5.38;;
52322;SDS011;38263;52.920;6.238;2023-05-20T03:20:20;16.45;;;6.20;;
52322;SDS011;38263;52.920;6.238;2023-05-20T03:22:46;9.00;;;5.75;;
52322;SDS011;38263;52.920;6.238;2023-05-20T03:25:12;11.02;;;5.68;;
52322;SDS011;38263;52.920;6.238;2023-05-20T03:27:38;9.85;;;5.28;;
52322;SDS011;38263;52.920;6.238;2023-05-20T03:30:05;8.82;;;4.78;;
52322;SDS011;38263;52.920;6.238;2023-05-20T03:32:32;9.50;;;5.65;;
52322;SDS011;38263;52.920;6.238;2023-05-20T03:34:58;8.18;;;4.97;;
52322;SDS011;38263;52.920;6.238;2023-05-20T03:37:24;8.07;;;5.88;;
52322;SDS011;38263;52.920;6.238;2023-05-20T03:39:50;8.77;;;5.43;;
52322;SDS011;38263;52.920;6.238;2023-05-20T03:42:16;8.80;;;5.38;;
52322;SDS011;38263;52.920;6.238;2023-05-20T03:44:42;12.70;;;5.32;;
52322;SDS011;38263;52.920;6.238;2023-05-20T03:47:08;12.35;;;5.60;;
52322;SDS011;38263;52.920;6.238;2023-05-20T03:49:34;9.13;;;5.25;;
52322;SDS011;38263;52.920;6.238;2023-05-20T03:52:00;10.40;;;5.25;;
52322;SDS011;38263;52.920;6.238;2023-05-20T03:54:27;10.18;;;5.07;;
52322;SDS011;38263;52.920;6.238;2023-05-20T03:56:55;12.07;;;5.00;;
52322;SDS011;38263;52.920;6.238;2023-05-20T03:59:21;15.02;;;5.85;;
52322;SDS011;38263;52.920;6.238;2023-05-20T04:01:47;8.60;;;5.63;;
52322;SDS011;38263;52.920;6.238;2023-05-20T04:04:13;10.75;;;5.35;;
52322;SDS011;38263;52.920;6.238;2023-05-20T04:06:39;7.97;;;5.25;;
52322;SDS011;38263;52.920;6.238;2023-05-20T04:09:05;9.50;;;5.05;;
52322;SDS011;38263;52.920;6.238;2023-05-20T04:11:31;8.52;;;4.35;;
52322;SDS011;38263;52.920;6.238;2023-05-20T04:13:57;7.15;;;5.07;;
52322;SDS011;38263;52.920;6.238;2023-05-20T04:16:24;9.05;;;5.13;;
52322;SDS011;38263;52.920;6.238;2023-05-20T04:18:50;8.60;;;4.72;;
52322;SDS011;38263;52.920;6.238;2023-05-20T04:21:16;10.25;;;4.72;;
52322;SDS011;38263;52.920;6.238;2023-05-20T04:23:43;8.30;;;4.70;;
52322;SDS011;38263;52.920;6.238;2023-05-20T04:26:09;11.73;;;4.80;;
52322;SDS011;38263;52.920;6.238;2023-05-20T04:28:36;8.98;;;4.30;;
52322;SDS011;38263;52.920;6.238;2023-05-20T04:31:05;10.82;;;5.05;;
52322;SDS011;38263;52.920;6.238;2023-05-20T04:33:32;8.05;;;4.90;;
52322;SDS011;38263;52.920;6.238;2023-05-20T04:36:02;11.13;;;5.00;;
52322;SDS011;38263;52.920;6.238;2023-05-20T04:38:29;9.73;;;4.85;;
52322;SDS011;38263;52.920;6.238;2023-05-20T04:40:56;6.50;;;4.28;;
52322;SDS011;38263;52.920;6.238;2023-05-20T04:43:23;7.65;;;4.65;;
52322;SDS011;38263;52.920;6.238;2023-05-20T04:45:50;5.15;;;4.25;;
52322;SDS011;38263;52.920;6.238;2023-05-20T04:48:17;7.35;;;4.53;;
52322;SDS011;38263;52.920;6.238;2023-05-20T04:50:43;7.85;;;4.32;;
52322;SDS011;38263;52.920;6.238;2023-05-20T04:53:10;11.75;;;5.13;;
52322;SDS011;38263;52.920;6.238;2023-05-20T04:55:36;8.25;;;4.15;;
52322;SDS011;38263;52.920;6.238;2023-05-20T04:58:03;9.55;;;4.75;;
52322;SDS011;38263;52.920;6.238;2023-05-20T05:00:29;6.90;;;3.70;;
52322;SDS011;38263;52.920;6.238;2023-05-20T05:02:55;11.95;;;4.63;;
52322;SDS011;38263;52.920;6.238;2023-05-20T05:05:21;9.57;;;4.25;;
52322;SDS011;38263;52.920;6.238;2023-05-20T05:07:47;10.75;;;4.40;;
52322;SDS011;38263;52.920;6.238;2023-05-20T05:10:13;4.55;;;3.47;;
52322;SDS011;38263;52.920;6.238;2023-05-20T05:12:39;8.07;;;3.75;;
52322;SDS011;38263;52.920;6.238;2023-05-20T05:15:05;7.93;;;3.97;;
52322;SDS011;38263;52.920;6.238;2023-05-20T05:17:32;8.40;;;3.42;;
52322;SDS011;38263;52.920;6.238;2023-05-20T05:19:58;9.48;;;3.58;;
52322;SDS011;38263;52.920;6.238;2023-05-20T05:22:24;5.30;;;3.05;;
52322;SDS011;38263;52.920;6.238;2023-05-20T05:24:50;7.00;;;4.25;;
52322;SDS011;38263;52.920;6.238;2023-05-20T05:27:16;8.10;;;3.72;;
52322;SDS011;38263;52.920;6.238;2023-05-20T05:29:42;6.93;;;3.40;;
52322;SDS011;38263;52.920;6.238;2023-05-20T05:32:08;6.55;;;3.03;;
52322;SDS011;38263;52.920;6.238;2023-05-20T05:34:34;6.25;;;3.13;;
52322;SDS011;38263;52.920;6.238;2023-05-20T05:37:00;7.07;;;3.25;;
52322;SDS011;38263;52.920;6.238;2023-05-20T05:39:26;10.43;;;2.60;;
52322;SDS011;38263;52.920;6.238;2023-05-20T05:41:52;3.78;;;2.58;;
52322;SDS011;38263;52.920;6.238;2023-05-20T05:44:18;7.75;;;2.78;;
52322;SDS011;38263;52.920;6.238;2023-05-20T05:46:44;4.28;;;2.03;;
52322;SDS011;38263;52.920;6.238;2023-05-20T05:49:10;6.47;;;2.47;;
52322;SDS011;38263;52.920;6.238;2023-05-20T05:51:36;4.00;;;1.85;;
52322;SDS011;38263;52.920;6.238;2023-05-20T05:54:02;3.95;;;2.13;;
52322;SDS011;38263;52.920;6.238;2023-05-20T05:56:27;6.18;;;1.80;;
52322;SDS011;38263;52.920;6.238;2023-05-20T05:58:53;3.97;;;1.60;;
52322;SDS011;38263;52.920;6.238;2023-05-20T06:01:18;5.32;;;1.50;;
52322;SDS011;38263;52.920;6.238;2023-05-20T06:03:44;7.85;;;1.60;;
52322;SDS011;38263;52.920;6.238;2023-05-20T06:06:10;3.58;;;1.30;;
52322;SDS011;38263;52.920;6.238;2023-05-20T06:08:35;2.63;;;1.25;;
52322;SDS011;38263;52.920;6.238;2023-05-20T06:11:01;2.28;;;1.30;;
52322;SDS011;38263;52.920;6.238;2023-05-20T06:13:26;2.30;;;1.20;;
52322;SDS011;38263;52.920;6.238;2023-05-20T06:15:52;2.40;;;1.30;;
52322;SDS011;38263;52.920;6.238;2023-05-20T06:18:18;5.43;;;1.50;;
52322;SDS011;38263;52.920;6.238;2023-05-20T06:20:43;7.97;;;1.40;;
52322;SDS011;38263;52.920;6.238;2023-05-20T06:23:09;2.70;;;0.98;;
52322;SDS011;38263;52.920;6.238;2023-05-20T06:25:34;3.15;;;1.30;;
52322;SDS011;38263;52.920;6.238;2023-05-20T06:28:00;3.08;;;1.20;;
52322;SDS011;38263;52.920;6.238;2023-05-20T06:30:25;5.05;;;1.10;;
52322;SDS011;38263;52.920;6.238;2023-05-20T06:32:51;1.95;;;1.05;;
52322;SDS011;38263;52.920;6.238;2023-05-20T06:35:17;3.30;;;0.80;;
52322;SDS011;38263;52.920;6.238;2023-05-20T06:37:42;1.98;;;0.88;;
52322;SDS011;38263;52.920;6.238;2023-05-20T06:40:08;3.95;;;0.90;;
52322;SDS011;38263;52.920;6.238;2023-05-20T06:42:34;4.18;;;0.85;;
52322;SDS011;38263;52.920;6.238;2023-05-20T06:45:00;4.53;;;1.10;;
52322;SDS011;38263;52.920;6.238;2023-05-20T06:47:25;2.75;;;0.90;;
52322;SDS011;38263;52.920;6.238;2023-05-20T06:49:51;3.20;;;1.15;;
52322;SDS011;38263;52.920;6.238;2023-05-20T06:52:16;4.38;;;1.27;;
52322;SDS011;38263;52.920;6.238;2023-05-20T06:54:42;5.35;;;1.00;;
52322;SDS011;38263;52.920;6.238;2023-05-20T06:57:08;3.47;;;1.02;;
52322;SDS011;38263;52.920;6.238;2023-05-20T06:59:34;3.55;;;1.17;;
52322;SDS011;38263;52.920;6.238;2023-05-20T07:02:00;4.43;;;1.00;;
52322;SDS011;38263;52.920;6.238;2023-05-20T07:04:26;4.82;;;0.90;;
52322;SDS011;38263;52.920;6.238;2023-05-20T07:06:52;3.00;;;1.10;;
52322;SDS011;38263;52.920;6.238;2023-05-20T07:09:18;5.03;;;1.30;;
52322;SDS011;38263;52.920;6.238;2023-05-20T07:11:43;2.33;;;1.13;;
52322;SDS011;38263;52.920;6.238;2023-05-20T07:14:09;3.63;;;1.30;;
52322;SDS011;38263;52.920;6.238;2023-05-20T07:16:35;5.00;;;1.05;;
52322;SDS011;38263;52.920;6.238;2023-05-20T07:19:02;2.13;;;1.10;;
52322;SDS011;38263;52.920;6.238;2023-05-20T07:21:28;3.35;;;1.25;;
52322;SDS011;38263;52.920;6.238;2023-05-20T07:23:53;8.55;;;1.40;;
52322;SDS011;38263;52.920;6.238;2023-05-20T07:26:19;3.45;;;1.15;;
52322;SDS011;38263;52.920;6.238;2023-05-20T07:28:46;2.47;;;1.00;;
52322;SDS011;38263;52.920;6.238;2023-05-20T07:31:12;2.60;;;1.40;;
52322;SDS011;38263;52.920;6.238;2023-05-20T07:33:38;3.35;;;1.48;;
52322;SDS011;38263;52.920;6.238;2023-05-20T07:36:04;2.80;;;1.42;;
52322;SDS011;38263;52.920;6.238;2023-05-20T07:38:30;5.40;;;1.58;;
52322;SDS011;38263;52.920;6.238;2023-05-20T07:40:56;2.58;;;1.58;;
52322;SDS011;38263;52.920;6.238;2023-05-20T07:43:22;5.05;;;1.20;;
52322;SDS011;38263;52.920;6.238;2023-05-20T07:45:48;8.43;;;2.35;;
52322;SDS011;38263;52.920;6.238;2023-05-20T07:48:13;5.05;;;1.45;;
52322;SDS011;38263;52.920;6.238;2023-05-20T07:50:39;4.00;;;1.52;;
52322;SDS011;38263;52.920;6.238;2023-05-20T07:53:06;2.63;;;1.75;;
52322;SDS011;38263;52.920;6.238;2023-05-20T07:55:34;3.75;;;1.20;;
52322;SDS011;38263;52.920;6.238;2023-05-20T07:58:01;3.15;;;1.10;;
52322;SDS011;38263;52.920;6.238;2023-05-20T08:00:26;4.22;;;1.13;;
52322;SDS011;38263;52.920;6.238;2023-05-20T08:02:52;6.75;;;1.88;;
52322;SDS011;38263;52.920;6.238;2023-05-20T08:05:18;6.50;;;2.72;;
52322;SDS011;38263;52.920;6.238;2023-05-20T08:07:46;5.30;;;1.38;;
52322;SDS011;38263;52.920;6.238;2023-05-20T08:10:12;4.30;;;1.40;;
52322;SDS011;38263;52.920;6.238;2023-05-20T08:12:38;3.00;;;1.60;;
52322;SDS011;38263;52.920;6.238;2023-05-20T08:15:05;2.80;;;1.05;;
52322;SDS011;38263;52.920;6.238;2023-05-20T08:17:31;6.63;;;1.45;;
52322;SDS011;38263;52.920;6.238;2023-05-20T08:19:57;2.58;;;1.42;;
52322;SDS011;38263;52.920;6.238;2023-05-20T08:22:23;3.28;;;1.48;;
52322;SDS011;38263;52.920;6.238;2023-05-20T08:24:49;2.22;;;1.30;;
52322;SDS011;38263;52.920;6.238;2023-05-20T08:27:15;3.75;;;1.23;;
52322;SDS011;38263;52.920;6.238;2023-05-20T08:29:43;6.32;;;2.28;;
52322;SDS011;38263;52.920;6.238;2023-05-20T08:32:09;4.43;;;1.55;;
52322;SDS011;38263;52.920;6.238;2023-05-20T08:34:35;6.03;;;1.65;;
52322;SDS011;38263;52.920;6.238;2023-05-20T08:37:01;5.35;;;1.40;;
52322;SDS011;38263;52.920;6.238;2023-05-20T08:39:27;8.25;;;2.17;;
52322;SDS011;38263;52.920;6.238;2023-05-20T08:41:53;4.78;;;1.60;;
52322;SDS011;38263;52.920;6.238;2023-05-20T08:44:20;5.25;;;1.85;;
52322;SDS011;38263;52.920;6.238;2023-05-20T08:46:46;3.28;;;1.60;;
52322;SDS011;38263;52.920;6.238;2023-05-20T08:49:12;5.00;;;1.40;;
52322;SDS011;38263;52.920;6.238;2023-05-20T08:51:38;2.78;;;1.63;;
52322;SDS011;38263;52.920;6.238;2023-05-20T08:54:08;7.53;;;1.85;;
52322;SDS011;38263;52.920;6.238;2023-05-20T08:56:35;9.88;;;1.75;;
52322;SDS011;38263;52.920;6.238;2023-05-20T08:59:03;5.53;;;1.88;;
52322;SDS011;38263;52.920;6.238;2023-05-20T09:01:29;2.40;;;1.25;;
52322;SDS011;38263;52.920;6.238;2023-05-20T09:03:55;3.92;;;1.45;;
52322;SDS011;38263;52.920;6.238;2023-05-20T09:06:21;5.18;;;2.03;;
52322;SDS011;38263;52.920;6.238;2023-05-20T09:08:48;5.35;;;1.60;;
52322;SDS011;38263;52.920;6.238;2023-05-20T09:11:15;6.95;;;1.92;;
52322;SDS011;38263;52.920;6.238;2023-05-20T09:13:42;2.63;;;1.45;;
52322;SDS011;38263;52.920;6.238;2023-05-20T09:16:08;4.72;;;2.05;;
52322;SDS011;38263;52.920;6.238;2023-05-20T09:18:37;2.97;;;1.75;;
52322;SDS011;38263;52.920;6.238;2023-05-20T09:21:04;6.68;;;1.65;;
52322;SDS011;38263;52.920;6.238;2023-05-20T09:23:30;3.60;;;1.70;;
52322;SDS011;38263;52.920;6.238;2023-05-20T09:25:59;2.72;;;1.45;;
52322;SDS011;38263;52.920;6.238;2023-05-20T09:28:26;5.85;;;2.35;;
52322;SDS011;38263;52.920;6.238;2023-05-20T09:30:58;5.97;;;2.00;;
52322;SDS011;38263;52.920;6.238;2023-05-20T09:33:28;2.95;;;1.65;;
52322;SDS011;38263;52.920;6.238;2023-05-20T09:36:01;4.15;;;1.70;;
52322;SDS011;38263;52.920;6.238;2023-05-20T09:38:32;3.95;;;1.45;;
52322;SDS011;38263;52.920;6.238;2023-05-20T09:41:11;4.80;;;1.70;;
52322;SDS011;38263;52.920;6.238;2023-05-20T09:43:39;3.95;;;1.75;;
52322;SDS011;38263;52.920;6.238;2023-05-20T09:46:04;3.75;;;1.70;;
52322;SDS011;38263;52.920;6.238;2023-05-20T09:48:32;4.40;;;1.58;;
52322;SDS011;38263;52.920;6.238;2023-05-20T09:51:02;3.20;;;1.70;;
52322;SDS011;38263;52.920;6.238;2023-05-20T09:53:29;3.90;;;1.60;;
52322;SDS011;38263;52.920;6.238;2023-05-20T09:55:55;4.40;;;1.70;;
52322;SDS011;38263;52.920;6.238;2023-05-20T09:58:21;4.50;;;1.52;;
52322;SDS011;38263;52.920;6.238;2023-05-20T10:00:48;4.45;;;1.52;;
52322;SDS011;38263;52.920;6.238;2023-05-20T10:03:14;4.97;;;1.65;;
52322;SDS011;38263;52.920;6.238;2023-05-20T10:05:42;3.55;;;1.60;;
52322;SDS011;38263;52.920;6.238;2023-05-20T10:08:29;3.88;;;1.70;;
52322;SDS011;38263;52.920;6.238;2023-05-20T10:11:24;4.45;;;1.20;;
52322;SDS011;38263;52.920;6.238;2023-05-20T10:16:46;4.15;;;1.90;;
52322;SDS011;38263;52.920;6.238;2023-05-20T10:19:26;6.75;;;1.80;;
52322;SDS011;38263;52.920;6.238;2023-05-20T10:21:57;2.88;;;1.60;;
52322;SDS011;38263;52.920;6.238;2023-05-20T10:24:30;6.55;;;1.23;;
52322;SDS011;38263;52.920;6.238;2023-05-20T10:27:02;5.75;;;1.40;;
52322;SDS011;38263;52.920;6.238;2023-05-20T10:29:44;4.40;;;1.48;;
52322;SDS011;38263;52.920;6.238;2023-05-20T10:32:27;3.38;;;1.02;;
52322;SDS011;38263;52.920;6.238;2023-05-20T10:35:00;4.75;;;1.50;;
52322;SDS011;38263;52.920;6.238;2023-05-20T10:37:41;2.60;;;1.35;;
52322;SDS011;38263;52.920;6.238;2023-05-20T10:42:40;4.97;;;1.92;;
52322;SDS011;38263;52.920;6.238;2023-05-20T10:45:06;7.00;;;2.95;;
52322;SDS011;38263;52.920;6.238;2023-05-20T10:47:33;3.53;;;1.83;;
52322;SDS011;38263;52.920;6.238;2023-05-20T10:50:00;2.45;;;1.08;;
52322;SDS011;38263;52.920;6.238;2023-05-20T10:52:31;4.40;;;1.40;;
52322;SDS011;38263;52.920;6.238;2023-05-20T10:55:00;4.72;;;2.15;;
52322;SDS011;38263;52.920;6.238;2023-05-20T10:57:27;6.72;;;1.58;;
52322;SDS011;38263;52.920;6.238;2023-05-20T10:59:54;4.20;;;1.30;;
52322;SDS011;38263;52.920;6.238;2023-05-20T11:02:20;3.83;;;1.40;;
52322;SDS011;38263;52.920;6.238;2023-05-20T11:04:52;6.20;;;1.42;;
52322;SDS011;38263;52.920;6.238;2023-05-20T11:07:27;4.00;;;1.73;;
52322;SDS011;38263;52.920;6.238;2023-05-20T11:09:54;2.92;;;1.27;;
52322;SDS011;38263;52.920;6.238;2023-05-20T11:12:20;4.72;;;1.33;;
52322;SDS011;38263;52.920;6.238;2023-05-20T11:14:48;5.00;;;1.35;;
52322;SDS011;38263;52.920;6.238;2023-05-20T11:17:14;3.65;;;1.45;;
52322;SDS011;38263;52.920;6.238;2023-05-20T11:19:40;5.18;;;1.30;;
52322;SDS011;38263;52.920;6.238;2023-05-20T11:22:06;4.07;;;1.50;;
52322;SDS011;38263;52.920;6.238;2023-05-20T11:24:32;2.65;;;1.52;;
52322;SDS011;38263;52.920;6.238;2023-05-20T11:26:58;3.35;;;1.48;;
52322;SDS011;38263;52.920;6.238;2023-05-20T11:29:25;3.72;;;1.50;;
52322;SDS011;38263;52.920;6.238;2023-05-20T11:31:53;3.60;;;1.88;;
52322;SDS011;38263;52.920;6.238;2023-05-20T11:34:22;8.57;;;1.70;;
52322;SDS011;38263;52.920;6.238;2023-05-20T11:36:48;3.22;;;1.63;;
52322;SDS011;38263;52.920;6.238;2023-05-20T11:39:16;2.50;;;1.17;;
52322;SDS011;38263;52.920;6.238;2023-05-20T11:41:42;4.38;;;1.70;;
52322;SDS011;38263;52.920;6.238;2023-05-20T11:44:11;6.18;;;1.52;;
52322;SDS011;38263;52.920;6.238;2023-05-20T11:46:45;3.88;;;1.42;;
52322;SDS011;38263;52.920;6.238;2023-05-20T11:49:11;5.45;;;1.88;;
52322;SDS011;38263;52.920;6.238;2023-05-20T11:51:38;3.88;;;1.65;;
52322;SDS011;38263;52.920;6.238;2023-05-20T11:54:05;3.60;;;1.63;;
52322;SDS011;38263;52.920;6.238;2023-05-20T11:56:38;3.65;;;1.40;;
52322;SDS011;38263;52.920;6.238;2023-05-20T11:59:07;3.58;;;1.60;;
52322;SDS011;38263;52.920;6.238;2023-05-20T12:01:37;3.80;;;1.00;;
52322;SDS011;38263;52.920;6.238;2023-05-20T12:04:07;2.95;;;1.45;;
52322;SDS011;38263;52.920;6.238;2023-05-20T12:06:33;2.90;;;1.02;;
52322;SDS011;38263;52.920;6.238;2023-05-20T12:09:01;6.57;;;1.38;;
52322;SDS011;38263;52.920;6.238;2023-05-20T12:11:37;5.57;;;1.60;;
52322;SDS011;38263;52.920;6.238;2023-05-20T12:14:05;5.00;;;1.85;;
52322;SDS011;38263;52.920;6.238;2023-05-20T12:16:32;2.65;;;1.20;;
52322;SDS011;38263;52.920;6.238;2023-05-20T12:18:58;6.20;;;1.10;;
52322;SDS011;38263;52.920;6.238;2023-05-20T12:21:24;4.97;;;1.30;;
52322;SDS011;38263;52.920;6.238;2023-05-20T12:23:50;4.05;;;1.10;;
52322;SDS011;38263;52.920;6.238;2023-05-20T12:26:21;4.57;;;1.70;;
52322;SDS011;38263;52.920;6.238;2023-05-20T12:28:47;4.60;;;1.30;;
52322;SDS011;38263;52.920;6.238;2023-05-20T12:31:13;5.55;;;1.30;;
52322;SDS011;38263;52.920;6.238;2023-05-20T12:33:38;3.05;;;1.23;;
52322;SDS011;38263;52.920;6.238;2023-05-20T12:36:04;5.53;;;1.52;;
52322;SDS011;38263;52.920;6.238;2023-05-20T12:38:30;6.68;;;1.23;;
52322;SDS011;38263;52.920;6.238;2023-05-20T12:40:55;4.30;;;1.52;;
52322;SDS011;38263;52.920;6.238;2023-05-20T12:43:21;6.25;;;1.58;;
52322;SDS011;38263;52.920;6.238;2023-05-20T12:45:47;6.22;;;1.58;;
52322;SDS011;38263;52.920;6.238;2023-05-20T12:48:13;2.28;;;1.23;;
52322;SDS011;38263;52.920;6.238;2023-05-20T12:50:39;2.15;;;1.10;;
52322;SDS011;38263;52.920;6.238;2023-05-20T12:53:04;2.05;;;0.98;;
52322;SDS011;38263;52.920;6.238;2023-05-20T12:55:30;4.15;;;1.25;;
52322;SDS011;38263;52.920;6.238;2023-05-20T12:57:55;3.08;;;1.20;;
52322;SDS011;38263;52.920;6.238;2023-05-20T13:00:21;6.35;;;1.33;;
52322;SDS011;38263;52.920;6.238;2023-05-20T13:02:47;3.83;;;1.05;;
52322;SDS011;38263;52.920;6.238;2023-05-20T13:05:13;3.88;;;0.95;;
52322;SDS011;38263;52.920;6.238;2023-05-20T13:07:39;3.13;;;1.20;;
52322;SDS011;38263;52.920;6.238;2023-05-20T13:10:05;3.70;;;1.23;;
52322;SDS011;38263;52.920;6.238;2023-05-20T13:12:32;5.53;;;1.50;;
52322;SDS011;38263;52.920;6.238;2023-05-20T13:14:58;3.03;;;1.30;;
52322;SDS011;38263;52.920;6.238;2023-05-20T13:17:24;7.93;;;1.20;;
52322;SDS011;38263;52.920;6.238;2023-05-20T13:19:50;4.05;;;1.38;;
52322;SDS011;38263;52.920;6.238;2023-05-20T13:22:16;4.65;;;1.45;;
52322;SDS011;38263;52.920;6.238;2023-05-20T13:24:41;5.97;;;1.40;;
52322;SDS011;38263;52.920;6.238;2023-05-20T13:27:07;3.22;;;1.48;;
52322;SDS011;38263;52.920;6.238;2023-05-20T13:29:34;3.28;;;1.38;;
52322;SDS011;38263;52.920;6.238;2023-05-20T13:31:59;2.83;;;1.23;;
52322;SDS011;38263;52.920;6.238;2023-05-20T13:34:25;3.03;;;1.02;;
52322;SDS011;38263;52.920;6.238;2023-05-20T13:36:50;3.20;;;1.23;;
52322;SDS011;38263;52.920;6.238;2023-05-20T13:39:16;3.15;;;1.45;;
52322;SDS011;38263;52.920;6.238;2023-05-20T13:41:42;4.10;;;1.13;;
52322;SDS011;38263;52.920;6.238;2023-05-20T13:44:08;4.55;;;1.40;;
52322;SDS011;38263;52.920;6.238;2023-05-20T13:46:34;5.30;;;1.30;;
52322;SDS011;38263;52.920;6.238;2023-05-20T13:49:00;4.32;;;1.45;;
52322;SDS011;38263;52.920;6.238;2023-05-20T13:51:25;6.70;;;1.40;;
52322;SDS011;38263;52.920;6.238;2023-05-20T13:53:51;5.03;;;1.20;;
52322;SDS011;38263;52.920;6.238;2023-05-20T13:56:17;6.82;;;1.60;;
52322;SDS011;38263;52.920;6.238;2023-05-20T13:58:43;5.63;;;1.88;;
52322;SDS011;38263;52.920;6.238;2023-05-20T14:01:09;2.97;;;1.13;;
52322;SDS011;38263;52.920;6.238;2023-05-20T14:03:36;2.28;;;1.00;;
52322;SDS011;38263;52.920;6.238;2023-05-20T14:06:04;3.33;;;1.50;;
52322;SDS011;38263;52.920;6.238;2023-05-20T14:08:30;4.43;;;2.05;;
52322;SDS011;38263;52.920;6.238;2023-05-20T14:10:56;3.92;;;1.55;;
52322;SDS011;38263;52.920;6.238;2023-05-20T14:13:21;5.88;;;1.75;;
52322;SDS011;38263;52.920;6.238;2023-05-20T14:15:47;6.85;;;1.70;;
52322;SDS011;38263;52.920;6.238;2023-05-20T14:18:14;2.85;;;1.40;;
52322;SDS011;38263;52.920;6.238;2023-05-20T14:20:40;3.78;;;1.52;;
52322;SDS011;38263;52.920;6.238;2023-05-20T14:23:06;4.07;;;1.35;;
52322;SDS011;38263;52.920;6.238;2023-05-20T14:25:31;2.03;;;1.08;;
52322;SDS011;38263;52.920;6.238;2023-05-20T14:27:57;5.13;;;1.45;;
52322;SDS011;38263;52.920;6.238;2023-05-20T14:30:23;3.33;;;1.60;;
52322;SDS011;38263;52.920;6.238;2023-05-20T14:32:49;5.50;;;1.48;;
52322;SDS011;38263;52.920;6.238;2023-05-20T14:35:15;5.30;;;1.55;;
52322;SDS011;38263;52.920;6.238;2023-05-20T14:37:42;2.65;;;1.30;;
52322;SDS011;38263;52.920;6.238;2023-05-20T14:40:08;4.82;;;2.20;;
52322;SDS011;38263;52.920;6.238;2023-05-20T14:42:34;5.38;;;2.10;;
52322;SDS011;38263;52.920;6.238;2023-05-20T14:45:00;6.10;;;1.85;;
52322;SDS011;38263;52.920;6.238;2023-05-20T14:47:26;3.53;;;1.30;;
52322;SDS011;38263;52.920;6.238;2023-05-20T14:49:52;4.25;;;1.67;;